createdAt,value
2023-02-16T00:01:18.151Z,88.05
2023-02-16T00:03:45.624Z,86.30
2023-02-16T00:06:16.061Z,81.82
2023-02-16T00:08:44.785Z,93.15
2023-02-16T00:11:50.878Z,91.70
2023-02-16T00:14:18.519Z,86.10
2023-02-16T00:16:45.948Z,90.07
2023-02-16T00:19:45.731Z,91.35
2023-02-16T00:22:13.111Z,90.82
2023-02-16T00:24:40.382Z,96.43
2023-02-16T00:27:16.083Z,86.88
2023-02-16T00:29:45.727Z,90.43
2023-02-16T00:32:13.599Z,95.63
2023-02-16T00:34:41.671Z,97.05
2023-02-16T00:37:10.451Z,97.18
2023-02-16T00:39:38.285Z,100.45
2023-02-16T00:42:12.958Z,100.32
2023-02-16T00:44:44.495Z,99.35
2023-02-16T00:47:18.926Z,96.75
2023-02-16T00:49:46.425Z,98.15
2023-02-16T00:52:19.609Z,102.82
2023-02-16T00:54:46.806Z,113.55
2023-02-16T00:57:17.353Z,101.82
2023-02-16T00:59:44.884Z,100.85
2023-02-16T01:02:12.170Z,98.95
2023-02-16T01:04:39.608Z,106.65
2023-02-16T01:07:32.353Z,97.05
2023-02-16T01:10:18.099Z,108.75
2023-02-16T01:12:45.454Z,106.55
2023-02-16T01:15:14.061Z,99.53
2023-02-16T01:17:41.335Z,107.13
2023-02-16T01:20:18.810Z,99.63
2023-02-16T01:22:46.212Z,99.57
2023-02-16T01:25:13.526Z,101.65
2023-02-16T01:27:41.245Z,105.32
2023-02-16T01:30:11.953Z,109.03
2023-02-16T01:32:39.225Z,103.50
2023-02-16T01:35:08.469Z,105.40
2023-02-16T01:37:35.699Z,107.90
2023-02-16T01:40:03.869Z,110.45
2023-02-16T01:42:35.234Z,106.05
2023-02-16T01:45:04.464Z,107.47
2023-02-16T01:47:41.836Z,105.88
2023-02-16T01:50:16.892Z,107.38
2023-02-16T01:52:48.764Z,105.20
2023-02-16T01:55:24.165Z,107.25
2023-02-16T01:58:12.809Z,101.20
2023-02-16T02:00:50.365Z,113.50
2023-02-16T02:03:38.745Z,106.82
2023-02-16T02:06:17.404Z,106.67
2023-02-16T02:08:52.148Z,102.63
2023-02-16T02:11:23.628Z,102.82
2023-02-16T02:13:58.976Z,107.78
2023-02-16T02:16:28.344Z,113.68
2023-02-16T02:18:55.770Z,82.55
2023-02-16T02:22:01.493Z,103.35
2023-02-16T02:24:49.003Z,105.80
2023-02-16T02:27:26.351Z,112.38
2023-02-16T02:29:57.625Z,107.47
2023-02-16T02:32:29.589Z,102.07
2023-02-16T02:35:02.933Z,107.40
2023-02-16T02:37:35.297Z,104.18
2023-02-16T02:40:09.437Z,115.22
2023-02-16T02:43:02.909Z,99.78
2023-02-16T02:45:35.248Z,97.82
2023-02-16T02:48:02.772Z,112.40
2023-02-16T02:50:33.034Z,110.15
2023-02-16T02:53:04.296Z,109.53
2023-02-16T02:55:51.550Z,103.22
2023-02-16T02:58:39.706Z,106.97
2023-02-16T03:01:09.698Z,96.43
2023-02-16T03:03:38.673Z,101.47
2023-02-16T03:06:06.080Z,105.75
2023-02-16T03:08:34.745Z,110.43
2023-02-16T03:11:27.139Z,82.35
2023-02-16T03:14:03.065Z,98.95
2023-02-16T03:16:40.414Z,105.22
2023-02-16T03:19:27.801Z,103.13
2023-02-16T03:22:14.613Z,96.07
2023-02-16T03:25:00.977Z,104.35
2023-02-16T03:27:49.194Z,102.35
2023-02-16T03:30:17.181Z,103.75
2023-02-16T03:32:45.206Z,94.93
2023-02-16T03:35:12.834Z,100.97
2023-02-16T03:37:41.053Z,102.80
2023-02-16T03:40:28.353Z,97.60
2023-02-16T03:43:00.972Z,103.95
2023-02-16T03:45:28.807Z,97.82
2023-02-16T03:47:56.093Z,91.40
2023-02-16T03:50:23.600Z,98.88
2023-02-16T03:52:50.811Z,100.18
2023-02-16T03:55:18.219Z,99.88
2023-02-16T03:57:45.437Z,92.68
2023-02-16T04:00:12.988Z,95.63
2023-02-16T04:02:43.997Z,92.80
2023-02-16T04:05:11.234Z,91.57
2023-02-16T04:07:38.470Z,91.05
2023-02-16T04:10:06.011Z,97.82
2023-02-16T04:12:39.044Z,92.13
2023-02-16T04:15:11.304Z,94.70
2023-02-16T04:17:38.680Z,92.35
2023-02-16T04:20:06.912Z,81.63
2023-02-16T04:22:34.183Z,83.85
2023-02-16T04:25:01.518Z,77.50
2023-02-16T04:27:28.782Z,92.07
2023-02-16T04:29:56.142Z,90.78
2023-02-16T04:32:23.512Z,90.07
2023-02-16T04:34:50.860Z,85.80
2023-02-16T04:37:18.174Z,86.68
2023-02-16T04:45:45.381Z,82.97
2023-02-16T04:57:46.614Z,95.15
2023-02-16T05:00:14.059Z,84.57
2023-02-16T05:02:41.300Z,97.47
2023-02-16T05:05:08.767Z,81.03
2023-02-16T05:07:36.936Z,85.40
2023-02-16T05:10:04.459Z,85.63
2023-02-16T05:12:50.449Z,89.57
2023-02-16T05:15:17.784Z,88.88
2023-02-16T05:17:44.974Z,84.57
2023-02-16T05:20:12.687Z,85.32
2023-02-16T05:22:40.009Z,85.70
2023-02-16T05:25:08.117Z,84.18
2023-02-16T05:27:35.616Z,82.93
2023-02-16T05:30:02.928Z,83.97
2023-02-16T05:32:30.211Z,88.68
2023-02-16T05:34:57.394Z,90.00
2023-02-16T05:37:24.617Z,92.25
2023-02-16T05:39:52.899Z,82.68
2023-02-16T05:42:20.215Z,85.88
2023-02-16T05:44:48.270Z,84.40
2023-02-16T05:47:15.580Z,87.57
2023-02-16T05:49:42.885Z,88.47
2023-02-16T05:52:10.218Z,92.00
2023-02-16T05:54:37.514Z,85.35
2023-02-16T05:57:04.874Z,89.40
2023-02-16T05:59:32.532Z,91.25
2023-02-16T06:01:59.815Z,85.15
2023-02-16T06:04:28.509Z,89.10
2023-02-16T06:06:55.897Z,83.97
2023-02-16T06:09:23.416Z,86.47
2023-02-16T06:11:50.688Z,92.00
2023-02-16T06:14:18.907Z,85.68
2023-02-16T06:16:47.547Z,85.40
2023-02-16T06:19:15.910Z,81.60
2023-02-16T06:21:43.638Z,87.53
2023-02-16T06:24:11.763Z,88.82
2023-02-16T06:26:39.287Z,88.32
2023-02-16T06:29:06.682Z,89.40
2023-02-16T06:31:36.351Z,93.60
2023-02-16T06:34:04.150Z,85.55
2023-02-16T06:36:32.001Z,95.28
2023-02-16T06:38:59.477Z,94.35
2023-02-16T06:41:35.667Z,93.50
2023-02-16T06:44:04.400Z,87.03
2023-02-16T06:46:31.977Z,91.50
2023-02-16T06:48:59.337Z,94.38
2023-02-16T06:51:27.049Z,97.05
2023-02-16T06:53:54.446Z,83.78
2023-02-16T06:56:22.189Z,86.18
2023-02-16T06:58:49.823Z,88.50
2023-02-16T07:01:22.898Z,88.07
2023-02-16T07:03:51.111Z,88.40
2023-02-16T07:06:18.500Z,100.78
2023-02-16T07:08:46.286Z,92.32
2023-02-16T07:11:13.675Z,96.60
2023-02-16T07:13:40.905Z,86.93
2023-02-16T07:16:08.572Z,91.68
2023-02-16T07:18:35.935Z,95.18
2023-02-16T07:21:03.490Z,89.63
2023-02-16T07:23:31.139Z,86.13
2023-02-16T07:25:58.374Z,89.75
2023-02-16T07:28:26.101Z,91.03
2023-02-16T07:30:53.487Z,86.85
2023-02-16T07:33:21.176Z,86.15
2023-02-16T07:35:48.530Z,97.72
2023-02-16T07:38:15.791Z,90.10
2023-02-16T07:40:43.073Z,94.93
2023-02-16T07:43:10.592Z,102.68
2023-02-16T07:45:37.869Z,94.60
2023-02-16T07:48:05.387Z,88.97
2023-02-16T07:50:32.614Z,87.65
2023-02-16T07:53:02.450Z,96.28
2023-02-16T07:55:30.541Z,91.55
2023-02-16T07:57:58.451Z,95.65
2023-02-16T08:00:25.826Z,93.82
2023-02-16T08:02:53.282Z,97.18
2023-02-16T08:05:20.766Z,96.80
2023-02-16T08:07:48.065Z,86.40
2023-02-16T08:10:15.749Z,89.93
2023-02-16T08:12:43.367Z,89.57
2023-02-16T08:15:11.529Z,89.00
2023-02-16T08:17:39.070Z,88.22
2023-02-16T08:20:07.765Z,93.72
2023-02-16T08:22:35.562Z,89.35
2023-02-16T08:25:02.780Z,88.88
2023-02-16T08:27:30.362Z,95.32
2023-02-16T08:29:57.598Z,90.28
2023-02-16T08:32:25.461Z,95.22
2023-02-16T08:34:52.770Z,83.05
2023-02-16T08:37:20.083Z,94.18
2023-02-16T08:39:49.075Z,96.32
2023-02-16T08:42:17.424Z,94.25
2023-02-16T08:44:44.923Z,60.13
2023-02-16T08:47:12.230Z,85.80
2023-02-16T08:49:39.635Z,85.90
2023-02-16T08:52:07.007Z,83.72
2023-02-16T08:54:34.594Z,94.05
2023-02-16T08:57:02.964Z,90.90
2023-02-16T08:59:30.423Z,88.90
2023-02-16T09:01:59.209Z,99.05
2023-02-16T09:04:27.517Z,93.32
2023-02-16T09:06:54.829Z,94.22
2023-02-16T09:09:22.504Z,90.50
2023-02-16T09:11:50.158Z,96.07
2023-02-16T09:14:22.961Z,96.90
2023-02-16T09:16:50.289Z,93.47
2023-02-16T09:19:21.156Z,92.07
2023-02-16T09:21:50.584Z,96.75
2023-02-16T09:24:17.862Z,97.97
2023-02-16T09:26:45.212Z,91.95
2023-02-16T09:29:13.890Z,108.72
2023-02-16T09:31:42.483Z,100.20
2023-02-16T09:34:16.213Z,78.70
2023-02-16T09:36:43.842Z,101.30
2023-02-16T09:39:11.431Z,105.40
2023-02-16T09:41:45.059Z,92.47
2023-02-16T09:44:26.513Z,107.05
2023-02-16T09:46:56.121Z,104.18
2023-02-16T09:49:23.924Z,111.97
2023-02-16T09:51:56.471Z,103.45
2023-02-16T09:54:35.963Z,106.38
2023-02-16T09:57:09.340Z,108.95
2023-02-16T09:59:39.627Z,110.45
2023-02-16T10:02:36.422Z,106.32
2023-02-16T10:05:22.374Z,109.68
2023-02-16T10:07:49.602Z,111.20
2023-02-16T10:10:19.614Z,109.55
2023-02-16T10:12:49.491Z,100.47
2023-02-16T10:15:20.088Z,114.50
2023-02-16T10:17:48.749Z,111.18
2023-02-16T10:20:21.461Z,110.97
2023-02-16T10:22:50.603Z,105.15
2023-02-16T10:25:20.826Z,111.97
2023-02-16T10:28:01.894Z,113.60
2023-02-16T10:30:30.733Z,118.93
2023-02-16T10:33:00.719Z,111.65
2023-02-16T10:35:43.703Z,111.93
2023-02-16T10:38:18.255Z,109.03
2023-02-16T10:40:48.300Z,99.65
2023-02-16T10:43:24.555Z,115.35
2023-02-16T10:45:53.054Z,109.22
2023-02-16T10:48:21.653Z,117.07
2023-02-16T10:50:52.355Z,120.15
2023-02-16T10:53:21.973Z,116.13
2023-02-16T10:55:49.173Z,112.93
2023-02-16T10:58:21.710Z,103.05
2023-02-16T11:00:53.239Z,116.50
2023-02-16T11:03:23.915Z,108.00
2023-02-16T11:05:51.355Z,95.95
2023-02-16T11:08:18.625Z,109.85
2023-02-16T11:10:51.117Z,114.03
2023-02-16T11:13:29.821Z,112.22
2023-02-16T11:15:58.724Z,112.60
2023-02-16T11:18:28.790Z,113.10
2023-02-16T11:20:56.435Z,109.88
2023-02-16T11:23:31.171Z,107.90
2023-02-16T11:26:21.516Z,109.00
2023-02-16T11:28:49.849Z,109.88
2023-02-16T11:31:34.178Z,106.60
2023-02-16T11:34:06.263Z,103.38
2023-02-16T11:36:44.494Z,104.63
2023-02-16T11:39:14.677Z,117.07
2023-02-16T11:41:46.394Z,104.45
2023-02-16T11:44:36.762Z,104.13
2023-02-16T11:47:06.543Z,106.00
2023-02-16T11:49:35.654Z,99.30
2023-02-16T11:52:18.527Z,106.72
2023-02-16T11:54:49.748Z,103.50
2023-02-16T11:57:23.689Z,95.93
2023-02-16T11:59:51.535Z,91.95
2023-02-16T12:02:31.811Z,95.13
2023-02-16T12:05:11.269Z,97.63
2023-02-16T12:07:47.516Z,92.63
2023-02-16T12:10:27.207Z,72.82
2023-02-16T12:12:57.603Z,86.50
2023-02-16T12:15:24.925Z,81.70
2023-02-16T12:18:01.195Z,79.25
2023-02-16T12:20:47.614Z,68.50
2023-02-16T12:23:26.832Z,67.97
2023-02-16T12:25:54.073Z,65.30
2023-02-16T12:28:28.750Z,64.35
2023-02-16T12:31:02.359Z,67.57
2023-02-16T12:33:47.884Z,61.85
2023-02-16T12:36:37.909Z,60.72
2023-02-16T12:39:23.721Z,65.25
2023-02-16T12:42:00.445Z,68.93
2023-02-16T12:44:56.785Z,65.13
2023-02-16T12:47:30.578Z,59.60
2023-02-16T12:50:03.453Z,52.53
2023-02-16T12:52:41.747Z,52.92
2023-02-16T12:55:17.889Z,52.27
2023-02-16T12:57:50.305Z,55.95
2023-02-16T13:00:24.022Z,45.65
2023-02-16T13:02:54.158Z,54.53
2023-02-16T13:05:21.437Z,53.40
2023-02-16T13:07:51.734Z,53.75
2023-02-16T13:10:25.529Z,47.78
2023-02-16T13:12:56.001Z,48.30
2023-02-16T13:15:58.851Z,53.67
2023-02-16T13:18:28.443Z,51.03
2023-02-16T13:21:02.224Z,50.97
2023-02-16T13:23:52.532Z,48.70
2023-02-16T13:26:19.743Z,49.42
2023-02-16T13:28:52.847Z,46.67
2023-02-16T13:31:30.431Z,42.67
2023-02-16T13:34:16.558Z,41.85
2023-02-16T13:36:43.804Z,39.20
2023-02-16T13:39:11.269Z,45.00
2023-02-16T13:41:55.586Z,39.55
2023-02-16T13:44:33.398Z,41.72
2023-02-16T13:47:02.763Z,38.13
2023-02-16T13:49:33.190Z,34.83
2023-02-16T13:52:00.649Z,38.83
2023-02-16T13:54:32.925Z,33.88
2023-02-16T13:57:03.972Z,35.30
2023-02-16T13:59:48.465Z,35.15
2023-02-16T14:02:36.551Z,34.13
2023-02-16T14:05:05.334Z,33.08
2023-02-16T14:07:33.350Z,31.95
2023-02-16T14:10:00.603Z,35.65
2023-02-16T14:12:34.246Z,36.25
2023-02-16T14:15:03.119Z,32.88
2023-02-16T14:17:32.286Z,35.33
2023-02-16T14:22:45.604Z,36.28
2023-02-16T14:25:27.159Z,38.30
2023-02-16T14:27:56.332Z,38.10
2023-02-16T14:30:23.628Z,36.63
2023-02-16T14:32:55.153Z,38.80
2023-02-16T14:35:25.534Z,38.60
2023-02-16T14:37:59.754Z,40.33
2023-02-16T14:40:36.053Z,39.53
2023-02-16T14:43:23.679Z,38.20
2023-02-16T14:45:56.087Z,40.65
2023-02-16T14:48:42.185Z,44.35
2023-02-16T14:51:10.179Z,41.67
2023-02-16T14:53:52.691Z,38.42
2023-02-16T14:56:19.944Z,43.90
2023-02-16T14:59:25.782Z,45.53
2023-02-16T15:01:53.124Z,44.15
2023-02-16T15:04:30.838Z,38.83
2023-02-16T15:06:59.760Z,43.33
2023-02-16T15:09:31.240Z,44.58
2023-02-16T15:12:19.317Z,42.90
2023-02-16T15:14:50.855Z,44.35
2023-02-16T15:17:38.227Z,41.08
2023-02-16T15:20:10.656Z,43.72
2023-02-16T15:22:44.783Z,44.50
2023-02-16T15:25:23.314Z,47.03
2023-02-16T15:27:54.740Z,48.38
2023-02-16T15:30:24.908Z,48.47
2023-02-16T15:32:59.704Z,47.08
2023-02-16T15:35:33.546Z,49.95
2023-02-16T15:38:01.812Z,51.53
2023-02-16T15:40:31.831Z,53.72
2023-02-16T15:43:19.941Z,52.70
2023-02-16T15:45:54.909Z,49.20
2023-02-16T15:48:36.738Z,42.92
2023-02-16T15:51:11.017Z,43.42
2023-02-16T15:53:42.404Z,46.88
2023-02-16T15:56:30.408Z,49.00
2023-02-16T15:58:59.456Z,47.03
2023-02-16T16:01:32.985Z,48.15
2023-02-16T16:04:21.329Z,51.42
2023-02-16T16:06:50.082Z,56.20
2023-02-16T16:09:31.473Z,47.72
2023-02-16T16:11:59.867Z,54.33
2023-02-16T16:14:27.418Z,53.70
2023-02-16T16:16:55.017Z,54.13
2023-02-16T16:19:40.429Z,55.90
2023-02-16T16:22:30.290Z,59.67
2023-02-16T16:24:57.496Z,56.97
2023-02-16T16:27:30.764Z,60.33
2023-02-16T16:30:15.309Z,56.85
2023-02-16T16:32:42.637Z,60.08
2023-02-16T16:35:19.763Z,46.83
2023-02-16T16:37:50.001Z,54.85
2023-02-16T16:40:22.527Z,54.53
2023-02-16T16:43:04.909Z,53.20
2023-02-16T16:45:37.151Z,59.55
2023-02-16T16:48:21.636Z,53.95
2023-02-16T16:50:49.345Z,56.05
2023-02-16T16:53:28.898Z,49.63
2023-02-16T16:55:56.670Z,57.85
2023-02-16T16:58:24.015Z,48.67
2023-02-16T17:00:51.244Z,53.08
2023-02-16T17:03:19.393Z,57.70
2023-02-16T17:05:46.775Z,60.47
2023-02-16T17:08:14.214Z,53.15
2023-02-16T17:10:42.363Z,57.15
2023-02-16T17:13:14.537Z,55.22
2023-02-16T17:15:49.261Z,57.40
2023-02-16T17:18:17.958Z,53.33
2023-02-16T17:20:45.946Z,60.22
2023-02-16T17:23:14.196Z,55.28
2023-02-16T17:25:41.823Z,51.80
2023-02-16T17:28:09.686Z,51.28
2023-02-16T17:30:37.721Z,52.20
2023-02-16T17:33:07.047Z,62.22
2023-02-16T17:38:06.883Z,55.72
2023-02-16T17:40:34.179Z,49.53
2023-02-16T17:43:01.474Z,54.00
2023-02-16T17:45:28.727Z,57.08
2023-02-16T17:47:55.985Z,51.97
2023-02-16T17:50:24.467Z,52.90
2023-02-16T17:52:57.079Z,56.37
2023-02-16T17:55:24.651Z,52.92
2023-02-16T17:57:52.322Z,51.38
2023-02-16T18:00:22.561Z,54.78
2023-02-16T18:02:49.895Z,50.38
2023-02-16T18:05:17.262Z,50.17
2023-02-16T18:07:44.492Z,45.55
2023-02-16T18:10:16.872Z,48.58
2023-02-16T18:12:44.153Z,47.92
2023-02-16T18:15:11.429Z,48.38
2023-02-16T18:17:38.739Z,48.15
2023-02-16T18:20:06.299Z,46.40
2023-02-16T18:22:33.602Z,51.65
2023-02-16T18:25:00.845Z,47.15
2023-02-16T18:27:29.412Z,47.35
2023-02-16T18:29:56.776Z,53.47
2023-02-16T18:32:24.051Z,53.90
2023-02-16T18:34:51.322Z,54.60
2023-02-16T18:37:18.544Z,55.25
2023-02-16T18:39:45.780Z,55.55
2023-02-16T18:42:13.477Z,56.78
2023-02-16T18:44:40.757Z,61.45
2023-02-16T18:47:08.800Z,61.30
2023-02-16T18:49:36.087Z,56.90
2023-02-16T18:52:03.307Z,50.10
2023-02-16T18:54:30.580Z,50.13
2023-02-16T18:56:57.851Z,48.42
2023-02-16T18:59:25.122Z,45.70
2023-02-16T19:01:59.935Z,43.25
2023-02-16T19:04:27.509Z,37.83
2023-02-16T19:06:54.847Z,37.47
2023-02-16T19:09:22.138Z,37.95
2023-02-16T19:11:49.488Z,39.72
2023-02-16T19:14:18.539Z,35.30
2023-02-16T19:16:46.371Z,32.25
2023-02-16T19:19:13.736Z,33.60
2023-02-16T19:21:41.182Z,32.53
2023-02-16T19:24:08.726Z,34.72
2023-02-16T19:26:35.978Z,32.60
2023-02-16T19:29:03.469Z,32.10
2023-02-16T19:31:32.334Z,32.95
2023-02-16T19:34:00.566Z,29.02
2023-02-16T19:36:34.043Z,26.95
2023-02-16T19:39:01.873Z,28.80
2023-02-16T19:41:30.548Z,29.90
2023-02-16T19:43:58.003Z,30.05
2023-02-16T19:46:25.689Z,29.83
2023-02-16T19:48:54.990Z,24.92
2023-02-16T19:53:49.468Z,25.15
2023-02-16T19:56:18.518Z,22.33
2023-02-16T19:58:46.260Z,21.98
2023-02-16T20:01:21.171Z,24.92
2023-02-16T20:03:49.042Z,23.80
2023-02-16T20:06:17.841Z,18.00
2023-02-16T20:08:46.047Z,20.98
2023-02-16T20:11:13.421Z,23.90
2023-02-16T20:13:40.719Z,21.85
2023-02-16T20:16:09.194Z,22.08
2023-02-16T20:18:36.714Z,23.13
2023-02-16T20:21:07.040Z,23.40
2023-02-16T20:23:35.102Z,23.85
2023-02-16T20:26:05.550Z,23.33
2023-02-16T20:28:33.066Z,24.85
2023-02-16T20:31:00.578Z,27.48
2023-02-16T20:33:28.175Z,22.73
2023-02-16T20:35:55.486Z,24.40
2023-02-16T20:38:22.817Z,29.13
2023-02-16T20:40:50.077Z,23.65
2023-02-16T20:43:20.871Z,27.55
2023-02-16T20:45:48.752Z,31.50
2023-02-16T20:48:16.471Z,30.73
2023-02-16T20:50:43.711Z,33.53
2023-02-16T20:53:11.002Z,35.30
2023-02-16T20:55:38.330Z,33.60
2023-02-16T20:58:05.624Z,35.75
2023-02-16T21:00:32.904Z,40.30
2023-02-16T21:03:00.210Z,38.78
2023-02-16T21:05:27.515Z,35.35
2023-02-16T21:07:54.869Z,39.60
2023-02-16T21:10:22.109Z,36.60
2023-02-16T21:12:49.388Z,44.83
2023-02-16T21:15:16.852Z,43.92
2023-02-16T21:17:44.088Z,44.30
2023-02-16T21:20:11.537Z,44.47
2023-02-16T21:22:38.886Z,42.13
2023-02-16T21:25:07.079Z,42.03
2023-02-16T21:27:34.555Z,41.15
2023-02-16T21:30:02.163Z,42.28
2023-02-16T21:32:29.517Z,37.67
2023-02-16T21:34:56.778Z,43.08
2023-02-16T21:37:24.038Z,39.60
2023-02-16T21:40:10.062Z,36.90
2023-02-16T21:42:37.321Z,40.58
2023-02-16T21:45:13.951Z,40.58
2023-02-16T21:48:01.173Z,36.40
2023-02-16T21:50:28.926Z,42.75
2023-02-16T21:52:56.860Z,38.42
2023-02-16T21:55:42.882Z,41.83
2023-02-16T21:58:10.768Z,44.40
2023-02-16T22:00:41.252Z,41.50
2023-02-16T22:03:08.967Z,42.45
2023-02-16T22:05:36.618Z,42.78
2023-02-16T22:08:03.926Z,40.53
2023-02-16T22:10:31.251Z,43.47
2023-02-16T22:12:58.821Z,45.10
2023-02-16T22:15:26.084Z,40.67
2023-02-16T22:17:53.475Z,38.45
2023-02-16T22:20:20.830Z,40.35
2023-02-16T22:22:48.132Z,40.95
2023-02-16T22:25:15.497Z,39.30
2023-02-16T22:27:42.768Z,41.50
2023-02-16T22:30:10.886Z,40.45
2023-02-16T22:32:38.422Z,34.75
2023-02-16T22:35:05.811Z,39.80
2023-02-16T22:37:33.542Z,33.15
2023-02-16T22:40:00.802Z,38.05
2023-02-16T22:42:28.131Z,37.72
2023-02-16T22:44:55.379Z,34.05
2023-02-16T22:47:22.682Z,31.83
2023-02-16T22:49:49.931Z,35.47
2023-02-16T22:52:17.189Z,39.80
2023-02-16T22:54:44.503Z,36.63
2023-02-16T22:57:11.781Z,33.05
2023-02-16T22:59:39.062Z,33.83
2023-02-16T23:02:06.425Z,35.13
2023-02-16T23:04:33.714Z,33.80
2023-02-16T23:07:01.015Z,36.45
2023-02-16T23:09:28.419Z,33.78
2023-02-16T23:11:55.653Z,37.55
2023-02-16T23:14:22.935Z,33.35
2023-02-16T23:16:51.745Z,37.25
2023-02-16T23:19:20.532Z,33.63
2023-02-16T23:21:48.109Z,36.25
2023-02-16T23:24:17.111Z,32.83
2023-02-16T23:26:44.470Z,36.05
2023-02-16T23:29:13.523Z,35.83
2023-02-16T23:31:42.072Z,37.92
2023-02-16T23:34:09.622Z,42.20
2023-02-16T23:36:37.537Z,49.72
2023-02-16T23:39:06.586Z,34.88
2023-02-16T23:41:33.977Z,43.80
2023-02-16T23:44:01.463Z,40.95
2023-02-16T23:46:28.960Z,46.20
2023-02-16T23:48:56.230Z,41.45
2023-02-16T23:51:23.493Z,44.55
2023-02-16T23:53:50.680Z,42.88
2023-02-16T23:56:22.250Z,42.33
2023-02-16T23:58:50.031Z,49.67
